createdAt,value
2023-05-07T00:00:35.008Z,97.24
2023-05-07T00:01:34.913Z,97.33
2023-05-07T00:02:34.968Z,97.24
2023-05-07T00:03:35.046Z,97.24
2023-05-07T00:04:34.925Z,97.33
2023-05-07T00:05:34.855Z,97.13
2023-05-07T00:06:34.853Z,97.08
2023-05-07T00:07:34.946Z,97.28
2023-05-07T00:08:34.819Z,97.49
2023-05-07T00:09:34.810Z,97.58
2023-05-07T00:10:34.800Z,97.69
2023-05-07T00:11:36.960Z,97.69
2023-05-07T00:12:34.903Z,97.79
2023-05-07T00:13:34.759Z,97.89
2023-05-07T00:14:34.738Z,97.99
2023-05-07T00:15:34.731Z,98.10
2023-05-07T00:16:34.741Z,97.99
2023-05-07T00:17:34.732Z,97.99
2023-05-07T00:18:34.703Z,97.89
2023-05-07T00:19:34.683Z,97.99
2023-05-07T00:20:36.077Z,98.20
2023-05-07T00:21:34.656Z,98.30
2023-05-07T00:22:34.642Z,98.30
2023-05-07T00:23:34.720Z,98.40
2023-05-07T00:24:34.622Z,98.30
2023-05-07T00:25:34.612Z,98.30
2023-05-07T00:26:34.597Z,98.20
2023-05-07T00:27:34.575Z,98.10
2023-05-07T00:28:34.561Z,98.10
2023-05-07T00:29:34.564Z,97.99
2023-05-07T00:30:34.540Z,97.99
2023-05-07T00:31:34.557Z,98.10
2023-05-07T00:32:34.539Z,98.10
2023-05-07T00:33:34.493Z,98.10
2023-05-07T00:34:34.501Z,98.10
2023-05-07T00:35:34.479Z,98.10
2023-05-07T00:36:34.477Z,98.14
2023-05-07T00:37:34.445Z,98.24
2023-05-07T00:38:34.454Z,98.35
2023-05-07T00:39:34.524Z,98.14
2023-05-07T00:40:34.402Z,98.04
2023-05-07T00:41:34.404Z,98.04
2023-05-07T00:42:34.386Z,98.24
2023-05-07T00:43:34.363Z,98.45
2023-05-07T00:44:34.359Z,98.55
2023-05-07T00:45:34.401Z,98.65
2023-05-07T00:46:34.358Z,98.75
2023-05-07T00:47:34.374Z,98.65
2023-05-07T00:48:34.297Z,98.65
2023-05-07T00:49:34.291Z,98.75
2023-05-07T00:50:34.281Z,98.86
2023-05-07T00:51:34.289Z,98.86
2023-05-07T00:52:34.248Z,98.86
2023-05-07T00:53:34.234Z,98.86
2023-05-07T00:54:34.225Z,98.96
2023-05-07T00:55:34.309Z,98.86
2023-05-07T00:56:34.203Z,98.75
2023-05-07T00:57:34.190Z,98.75
2023-05-07T00:58:34.176Z,98.75
2023-05-07T00:59:34.174Z,98.75
2023-05-07T01:00:34.141Z,98.45
2023-05-07T01:01:34.242Z,98.45
2023-05-07T01:02:34.181Z,98.45
2023-05-07T01:03:34.122Z,98.49
2023-05-07T01:04:34.162Z,98.49
2023-05-07T01:05:34.093Z,98.45
2023-05-07T01:06:34.073Z,98.45
2023-05-07T01:07:34.064Z,98.55
2023-05-07T01:08:34.056Z,98.55
2023-05-07T01:09:34.040Z,98.45
2023-05-07T01:10:34.017Z,98.55
2023-05-07T01:11:34.101Z,98.55
2023-05-07T01:12:34.117Z,98.55
2023-05-07T01:13:33.988Z,98.65
2023-05-07T01:14:34.027Z,98.75
2023-05-07T01:15:33.960Z,98.75
2023-05-07T01:16:33.966Z,98.75
2023-05-07T01:17:33.946Z,98.75
2023-05-07T01:18:33.912Z,98.75
2023-05-07T01:19:33.899Z,98.90
2023-05-07T01:20:33.891Z,98.86
2023-05-07T01:21:33.881Z,99.01
2023-05-07T01:22:33.856Z,98.90
2023-05-07T01:23:33.852Z,98.80
2023-05-07T01:24:33.842Z,98.80
2023-05-07T01:25:33.814Z,98.80
2023-05-07T01:26:33.826Z,98.90
2023-05-07T01:27:33.816Z,98.90
2023-05-07T01:28:33.788Z,99.01
2023-05-07T01:29:33.778Z,99.01
2023-05-07T01:30:33.766Z,99.01
2023-05-07T01:31:33.843Z,99.11
2023-05-07T01:32:33.759Z,99.11
2023-05-07T01:33:33.716Z,99.06
2023-05-07T01:34:33.714Z,99.01
2023-05-07T01:35:33.697Z,98.96
2023-05-07T01:36:33.686Z,98.90
2023-05-07T01:37:33.672Z,98.90
2023-05-07T01:38:33.644Z,98.80
2023-05-07T01:39:33.645Z,98.90
2023-05-07T01:40:33.634Z,99.01
2023-05-07T01:41:33.610Z,99.11
2023-05-07T01:42:33.600Z,98.90
2023-05-07T01:43:33.611Z,98.90
2023-05-07T01:44:33.577Z,98.80
2023-05-07T01:45:33.571Z,98.60
2023-05-07T01:46:33.627Z,98.60
2023-05-07T01:47:33.570Z,98.70
2023-05-07T01:48:33.517Z,98.90
2023-05-07T01:49:33.516Z,98.90
2023-05-07T01:50:33.494Z,98.90
2023-05-07T01:51:33.473Z,98.90
2023-05-07T01:52:33.470Z,98.90
2023-05-07T01:53:33.450Z,99.01
2023-05-07T01:54:33.459Z,99.11
2023-05-07T01:55:33.434Z,99.01
2023-05-07T01:56:33.411Z,98.90
2023-05-07T01:57:33.413Z,99.01
2023-05-07T01:58:33.400Z,98.90
2023-05-07T01:59:33.402Z,98.80
2023-05-07T02:00:33.385Z,98.70
2023-05-07T02:01:33.375Z,98.60
2023-05-07T02:02:33.424Z,98.70
2023-05-07T02:03:33.444Z,98.70
2023-05-07T02:04:33.317Z,98.80
2023-05-07T02:05:33.293Z,98.80
2023-05-07T02:06:33.293Z,98.90
2023-05-07T02:07:33.280Z,98.90
2023-05-07T02:08:33.263Z,98.70
2023-05-07T02:09:33.243Z,98.60
2023-05-07T02:10:33.256Z,98.54
2023-05-07T02:11:33.226Z,98.54
2023-05-07T02:12:33.205Z,98.74
2023-05-07T02:13:33.205Z,98.65
2023-05-07T02:14:33.186Z,98.54
2023-05-07T02:15:33.279Z,98.65
2023-05-07T02:16:33.218Z,98.65
2023-05-07T02:17:33.192Z,98.54
2023-05-07T02:18:33.156Z,98.54
2023-05-07T02:19:33.127Z,98.54
2023-05-07T02:20:33.104Z,98.54
2023-05-07T02:21:33.096Z,98.74
2023-05-07T02:22:33.089Z,98.74
2023-05-07T02:23:33.078Z,98.85
2023-05-07T02:24:33.058Z,98.95
2023-05-07T02:25:33.052Z,98.95
2023-05-07T02:26:33.027Z,98.85
2023-05-07T02:27:33.026Z,98.90
2023-05-07T02:28:33.035Z,98.90
2023-05-07T02:29:33.007Z,98.90
2023-05-07T02:30:32.970Z,98.99
2023-05-07T02:31:33.107Z,99.10
2023-05-07T02:32:32.990Z,99.20
2023-05-07T02:33:32.940Z,99.20
2023-05-07T02:34:32.923Z,99.20
2023-05-07T02:35:32.918Z,99.10
2023-05-07T02:36:32.902Z,98.99
2023-05-07T02:37:32.890Z,98.90
2023-05-07T02:38:32.875Z,98.79
2023-05-07T02:39:32.865Z,98.58
2023-05-07T02:40:32.853Z,98.58
2023-05-07T02:41:32.832Z,98.58
2023-05-07T02:42:32.822Z,98.69
2023-05-07T02:43:32.813Z,98.83
2023-05-07T02:44:32.808Z,98.94
2023-05-07T02:45:32.825Z,99.04
2023-05-07T02:46:32.780Z,99.15
2023-05-07T02:47:32.807Z,99.35
2023-05-07T02:48:32.750Z,99.35
2023-05-07T02:49:32.736Z,99.35
2023-05-07T02:50:32.727Z,99.25
2023-05-07T02:51:32.702Z,99.25
2023-05-07T02:52:32.699Z,99.25
2023-05-07T02:53:32.688Z,99.35
2023-05-07T02:54:32.669Z,99.55
2023-05-07T02:55:32.659Z,99.66
2023-05-07T02:56:32.663Z,99.55
2023-05-07T02:57:32.643Z,99.45
2023-05-07T02:58:32.664Z,99.66
2023-05-07T02:59:32.609Z,99.66
2023-05-07T03:00:32.591Z,99.45
2023-05-07T03:01:32.637Z,99.35
2023-05-07T03:02:32.585Z,99.25
2023-05-07T03:03:32.651Z,99.40
2023-05-07T03:04:32.626Z,99.35
2023-05-07T03:05:32.530Z,99.29
2023-05-07T03:06:32.515Z,99.40
2023-05-07T03:07:32.512Z,99.45
2023-05-07T03:08:32.485Z,99.50
2023-05-07T03:09:32.472Z,99.50
2023-05-07T03:10:32.477Z,99.50
2023-05-07T03:11:32.468Z,99.50
2023-05-07T03:12:32.434Z,99.40
2023-05-07T03:13:32.416Z,99.40
2023-05-07T03:14:32.414Z,99.40
2023-05-07T03:15:32.438Z,99.19
2023-05-07T03:16:32.454Z,98.99
2023-05-07T03:17:32.404Z,98.88
2023-05-07T03:18:32.402Z,98.78
2023-05-07T03:19:32.440Z,98.83
2023-05-07T03:20:32.394Z,98.93
2023-05-07T03:21:32.325Z,98.93
2023-05-07T03:22:32.315Z,99.03
2023-05-07T03:23:32.302Z,99.24
2023-05-07T03:24:32.286Z,99.44
2023-05-07T03:25:32.270Z,99.75
2023-05-07T03:26:32.262Z,99.65
2023-05-07T03:27:32.255Z,99.65
2023-05-07T03:28:32.225Z,99.69
2023-05-07T03:29:32.213Z,99.65
2023-05-07T03:30:32.204Z,99.69
2023-05-07T03:31:32.246Z,99.79
2023-05-07T03:32:32.242Z,99.90
2023-05-07T03:33:32.172Z,99.99
2023-05-07T03:34:32.163Z,99.90
2023-05-07T03:35:32.316Z,99.85
2023-05-07T03:36:32.134Z,99.85
2023-05-07T03:37:32.115Z,99.95
2023-05-07T03:38:32.096Z,99.95
2023-05-07T03:39:32.089Z,99.90
2023-05-07T03:40:32.079Z,99.79
2023-05-07T03:41:32.053Z,99.69
2023-05-07T03:42:32.048Z,99.90
2023-05-07T03:43:32.029Z,99.90
2023-05-07T03:44:32.019Z,99.99
2023-05-07T03:45:32.007Z,99.99
2023-05-07T03:46:32.032Z,99.99
2023-05-07T03:47:32.016Z,99.90
2023-05-07T03:48:31.978Z,99.99
2023-05-07T03:49:31.962Z,99.99
2023-05-07T03:50:31.943Z,99.99
2023-05-07T03:51:32.030Z,99.99
2023-05-07T03:52:31.920Z,99.99
2023-05-07T03:53:31.912Z,99.99
2023-05-07T03:54:31.888Z,99.99
2023-05-07T03:55:31.879Z,99.99
2023-05-07T03:56:31.864Z,99.99
2023-05-07T03:57:31.859Z,99.99
2023-05-07T03:58:31.845Z,99.99
2023-05-07T03:59:31.824Z,99.99
2023-05-07T04:00:31.814Z,99.95
2023-05-07T04:01:31.871Z,99.84
2023-05-07T04:02:31.852Z,99.84
2023-05-07T04:03:31.841Z,99.84
2023-05-07T04:04:31.769Z,99.99
2023-05-07T04:05:31.754Z,99.99
2023-05-07T04:06:31.746Z,99.99
2023-05-07T04:07:31.822Z,99.99
2023-05-07T04:08:31.723Z,99.99
2023-05-07T04:09:31.699Z,99.99
2023-05-07T04:10:31.690Z,99.99
2023-05-07T04:11:31.679Z,99.99
2023-05-07T04:12:31.666Z,99.99
2023-05-07T04:13:31.653Z,99.95
2023-05-07T04:14:31.644Z,99.99
2023-05-07T04:15:31.618Z,99.99
2023-05-07T04:16:31.642Z,99.99
2023-05-07T04:17:31.653Z,99.99
2023-05-07T04:18:31.582Z,99.95
2023-05-07T04:19:31.572Z,99.99
2023-05-07T04:20:31.560Z,99.99
2023-05-07T04:21:31.554Z,99.99
2023-05-07T04:22:31.550Z,99.99
2023-05-07T04:23:31.623Z,99.99
2023-05-07T04:24:31.510Z,99.90
2023-05-07T04:25:31.500Z,99.79
2023-05-07T04:26:31.487Z,99.69
2023-05-07T04:27:31.476Z,99.59
2023-05-07T04:28:31.450Z,99.38
2023-05-07T04:29:31.451Z,99.28
2023-05-07T04:30:31.425Z,99.28
2023-05-07T04:31:31.496Z,99.18
2023-05-07T04:32:31.473Z,99.13
2023-05-07T04:33:31.383Z,99.13
2023-05-07T04:34:31.379Z,99.03
2023-05-07T04:35:31.368Z,99.03
2023-05-07T04:36:31.352Z,98.93
2023-05-07T04:37:31.340Z,98.83
2023-05-07T04:38:31.325Z,98.83
2023-05-07T04:39:31.502Z,98.72
2023-05-07T04:40:31.299Z,98.58
2023-05-07T04:41:31.285Z,98.58
2023-05-07T04:42:31.284Z,98.58
2023-05-07T04:43:31.265Z,98.47
2023-05-07T04:44:31.250Z,98.27
2023-05-07T04:45:31.233Z,98.16
2023-05-07T04:46:31.263Z,97.96
2023-05-07T04:47:31.248Z,97.75
2023-05-07T04:48:31.200Z,97.75
2023-05-07T04:49:31.181Z,97.65
2023-05-07T04:50:31.167Z,97.65
2023-05-07T04:51:31.157Z,97.55
2023-05-07T04:52:31.151Z,97.24
2023-05-07T04:53:31.133Z,97.34
2023-05-07T04:54:31.121Z,97.30
2023-05-07T04:55:31.263Z,97.30
2023-05-07T04:56:31.133Z,97.30
2023-05-07T04:57:31.082Z,96.69
2023-05-07T04:58:31.070Z,96.48
2023-05-07T04:59:31.053Z,96.38
2023-05-07T05:00:31.043Z,96.07
2023-05-07T05:01:31.075Z,95.87
2023-05-07T05:02:31.064Z,95.82
2023-05-07T05:03:31.096Z,95.82
2023-05-07T05:04:30.991Z,95.67
2023-05-07T05:05:30.980Z,95.43
2023-05-07T05:06:30.958Z,95.12
2023-05-07T05:07:30.967Z,94.67
2023-05-07T05:08:30.944Z,93.85
2023-05-07T05:09:30.930Z,93.65
2023-05-07T05:10:30.912Z,93.09
2023-05-07T05:11:30.920Z,93.15
2023-05-07T05:12:30.888Z,93.05
2023-05-07T05:13:30.875Z,93.15
2023-05-07T05:14:30.864Z,93.15
2023-05-07T05:15:33.139Z,92.94
2023-05-07T05:16:30.858Z,92.84
2023-05-07T05:17:30.865Z,92.74
2023-05-07T05:18:30.811Z,92.54
2023-05-07T05:19:30.802Z,92.43
2023-05-07T05:20:30.798Z,92.39
2023-05-07T05:21:30.782Z,92.04
2023-05-07T05:22:30.754Z,91.59
2023-05-07T05:23:30.746Z,90.67
2023-05-07T05:24:30.722Z,89.71
2023-05-07T05:25:30.713Z,88.96
2023-05-07T05:26:30.699Z,87.90
2023-05-07T05:27:30.784Z,87.24
2023-05-07T05:28:30.691Z,86.29
2023-05-07T05:29:30.662Z,84.88
2023-05-07T05:30:30.655Z,82.31
2023-05-07T05:31:30.681Z,81.15
2023-05-07T05:32:30.646Z,80.91
2023-05-07T05:33:30.612Z,79.61
2023-05-07T05:34:30.605Z,77.34
2023-05-07T05:35:30.591Z,77.37
2023-05-07T05:36:30.580Z,76.12
2023-05-07T05:37:30.554Z,74.94
2023-05-07T05:38:30.543Z,73.79
2023-05-07T05:39:30.539Z,72.21
2023-05-07T05:40:30.533Z,71.67
2023-05-07T05:41:30.523Z,70.59
2023-05-07T05:42:30.490Z,68.31
2023-05-07T05:43:30.581Z,66.97
2023-05-07T05:44:30.473Z,66.63
2023-05-07T05:45:30.454Z,64.83
2023-05-07T05:46:30.538Z,63.79
2023-05-07T05:47:30.452Z,63.03
2023-05-07T05:48:30.419Z,61.80
2023-05-07T05:49:30.400Z,60.74
2023-05-07T05:50:30.389Z,60.11
2023-05-07T05:51:30.395Z,59.28
2023-05-07T05:52:30.367Z,58.35
2023-05-07T05:53:30.352Z,57.82
2023-05-07T05:54:30.342Z,57.72
2023-05-07T05:55:30.345Z,58.15
2023-05-07T05:56:30.318Z,58.65
2023-05-07T05:57:30.291Z,59.41
2023-05-07T05:58:30.293Z,60.03
2023-05-07T05:59:30.392Z,60.24
2023-05-07T06:00:30.320Z,61.19
2023-05-07T06:01:30.261Z,61.43
2023-05-07T06:02:30.373Z,63.09
2023-05-07T06:03:30.272Z,64.43
2023-05-07T06:04:30.235Z,65.70
2023-05-07T06:05:30.278Z,66.74
2023-05-07T06:06:30.178Z,67.80
2023-05-07T06:07:30.163Z,68.41
2023-05-07T06:08:30.159Z,69.21
2023-05-07T06:09:30.149Z,68.51
2023-05-07T06:10:30.122Z,68.65
2023-05-07T06:11:30.104Z,69.15
2023-05-07T06:12:30.097Z,69.72
2023-05-07T06:13:30.204Z,69.49
2023-05-07T06:14:30.100Z,69.59
2023-05-07T06:15:30.159Z,69.49
2023-05-07T06:16:30.111Z,69.69
2023-05-07T06:17:30.075Z,70.02
2023-05-07T06:18:30.044Z,70.73
2023-05-07T06:19:30.024Z,70.12
2023-05-07T06:20:30.001Z,70.93
2023-05-07T06:21:29.988Z,70.83
2023-05-07T06:22:29.976Z,71.67
2023-05-07T06:23:29.958Z,71.91
2023-05-07T06:24:29.946Z,72.64
2023-05-07T06:25:29.931Z,73.55
2023-05-07T06:26:29.925Z,73.82
2023-05-07T06:27:29.918Z,72.51
2023-05-07T06:28:29.889Z,71.43
2023-05-07T06:29:29.882Z,68.98
2023-05-07T06:30:29.866Z,68.35
2023-05-07T06:31:29.985Z,67.24
2023-05-07T06:32:29.854Z,67.88
2023-05-07T06:33:29.823Z,67.88
2023-05-07T06:34:29.821Z,68.68
2023-05-07T06:35:29.796Z,68.82
2023-05-07T06:36:29.795Z,68.82
2023-05-07T06:37:29.777Z,67.88
2023-05-07T06:38:29.779Z,67.14
2023-05-07T06:39:29.772Z,66.28
2023-05-07T06:40:29.735Z,64.88
2023-05-07T06:41:29.723Z,63.21
2023-05-07T06:42:29.713Z,63.34
2023-05-07T06:43:29.706Z,63.98
2023-05-07T06:44:29.712Z,64.34
2023-05-07T06:45:29.687Z,63.71
2023-05-07T06:46:29.717Z,62.95
2023-05-07T06:47:29.786Z,60.77
2023-05-07T06:48:29.669Z,59.61
2023-05-07T06:49:29.639Z,59.18
2023-05-07T06:50:29.610Z,58.11
2023-05-07T06:51:29.596Z,57.88
2023-05-07T06:52:29.591Z,57.73
2023-05-07T06:53:29.573Z,56.15
2023-05-07T06:54:29.562Z,54.90
2023-05-07T06:55:29.553Z,54.68
2023-05-07T06:56:29.553Z,51.72
2023-05-07T06:57:29.528Z,52.59
2023-05-07T06:58:29.506Z,51.28
2023-05-07T06:59:29.513Z,51.05
2023-05-07T07:00:29.485Z,49.71
2023-05-07T07:01:29.541Z,48.40
2023-05-07T07:02:29.521Z,49.54
2023-05-07T07:03:29.554Z,51.32
2023-05-07T07:04:29.565Z,52.94
2023-05-07T07:05:29.424Z,55.41
2023-05-07T07:06:29.419Z,57.78
2023-05-07T07:07:29.398Z,58.39
2023-05-07T07:08:29.390Z,60.88
2023-05-07T07:09:29.360Z,62.87
2023-05-07T07:10:29.365Z,64.74
2023-05-07T07:11:29.329Z,66.00
2023-05-07T07:12:29.329Z,67.14
2023-05-07T07:13:29.312Z,68.05
2023-05-07T07:14:29.324Z,67.41
2023-05-07T07:15:29.303Z,67.21
2023-05-07T07:16:29.394Z,67.44
2023-05-07T07:17:29.293Z,67.58
2023-05-07T07:18:29.257Z,68.48
2023-05-07T07:19:29.339Z,69.52
2023-05-07T07:20:29.228Z,70.29
2023-05-07T07:21:29.207Z,70.03
2023-05-07T07:22:29.200Z,70.03
2023-05-07T07:23:29.184Z,70.09
2023-05-07T07:24:29.166Z,69.59
2023-05-07T07:25:29.157Z,63.75
2023-05-07T07:26:29.136Z,61.00
2023-05-07T07:27:29.121Z,58.17
2023-05-07T07:28:29.124Z,54.68
2023-05-07T07:29:29.133Z,53.53
2023-05-07T07:30:29.081Z,52.59
2023-05-07T07:31:29.159Z,51.97
2023-05-07T07:32:29.100Z,51.79
2023-05-07T07:33:29.049Z,51.77
2023-05-07T07:34:29.047Z,53.23
2023-05-07T07:35:29.051Z,54.21
2023-05-07T07:36:38.976Z,54.33
2023-05-07T07:37:30.028Z,52.54
2023-05-07T07:38:28.992Z,50.58
2023-05-07T07:39:28.973Z,49.77
2023-05-07T07:40:28.959Z,48.65
2023-05-07T07:41:28.950Z,51.23
2023-05-07T07:42:28.934Z,51.25
2023-05-07T07:43:28.924Z,51.72
2023-05-07T07:44:28.916Z,50.63
2023-05-07T07:45:28.907Z,49.12
2023-05-07T07:46:28.919Z,49.49
2023-05-07T07:47:28.917Z,48.85
2023-05-07T07:48:28.852Z,48.61
2023-05-07T07:49:28.848Z,47.94
2023-05-07T07:50:43.518Z,48.41
2023-05-07T07:51:29.958Z,47.79
2023-05-07T07:52:28.808Z,47.13
2023-05-07T07:53:28.788Z,46.70
2023-05-07T07:54:28.791Z,47.10
2023-05-07T07:55:28.773Z,47.20
2023-05-07T07:56:28.762Z,46.76
2023-05-07T07:57:28.734Z,45.95
2023-05-07T07:58:28.748Z,46.26
2023-05-07T07:59:28.708Z,46.69
2023-05-07T08:00:28.711Z,47.18
2023-05-07T08:01:28.685Z,46.81
2023-05-07T08:02:28.798Z,47.05
2023-05-07T08:03:28.732Z,47.62
2023-05-07T08:04:28.709Z,48.21
2023-05-07T08:05:28.638Z,48.33
2023-05-07T08:06:28.666Z,48.77
2023-05-07T08:07:28.705Z,50.31
2023-05-07T08:08:28.590Z,51.07
2023-05-07T08:09:28.627Z,52.81
2023-05-07T08:10:28.592Z,53.76
2023-05-07T08:11:28.562Z,53.83
2023-05-07T08:12:28.554Z,55.38
2023-05-07T08:13:28.669Z,56.10
2023-05-07T08:14:28.518Z,55.63
2023-05-07T08:15:28.513Z,58.06
2023-05-07T08:16:28.495Z,58.91
2023-05-07T08:17:28.501Z,60.24
2023-05-07T08:18:28.490Z,61.76
2023-05-07T08:19:28.461Z,60.36
2023-05-07T08:20:28.446Z,60.82
2023-05-07T08:21:28.464Z,61.95
2023-05-07T08:22:28.431Z,62.78
2023-05-07T08:23:28.547Z,63.25
2023-05-07T08:24:28.404Z,62.05
2023-05-07T08:25:28.383Z,61.41
2023-05-07T08:26:28.375Z,63.01
2023-05-07T08:27:28.374Z,62.21
2023-05-07T08:28:28.341Z,63.45
2023-05-07T08:29:28.338Z,64.84
2023-05-07T08:30:28.361Z,65.85
2023-05-07T08:31:28.328Z,65.08
2023-05-07T08:32:28.316Z,65.98
2023-05-07T08:33:28.286Z,63.87
2023-05-07T08:34:28.274Z,63.98
2023-05-07T08:35:28.261Z,64.88
2023-05-07T08:36:28.238Z,64.54
2023-05-07T08:37:28.239Z,64.65
2023-05-07T08:38:28.214Z,64.04
2023-05-07T08:39:28.296Z,64.95
2023-05-07T08:40:28.188Z,64.78
2023-05-07T08:41:28.183Z,65.25
2023-05-07T08:42:28.168Z,64.84
2023-05-07T08:43:28.143Z,64.25
2023-05-07T08:44:28.142Z,65.68
2023-05-07T08:45:28.136Z,63.78
2023-05-07T08:46:28.148Z,63.87
2023-05-07T08:47:28.111Z,62.67
2023-05-07T08:48:28.084Z,64.51
2023-05-07T08:49:28.073Z,66.41
2023-05-07T08:50:28.046Z,63.10
2023-05-07T08:51:28.056Z,63.03
2023-05-07T08:52:28.043Z,62.00
2023-05-07T08:53:28.044Z,61.83
2023-05-07T08:54:27.997Z,62.00
2023-05-07T08:55:28.019Z,63.31
2023-05-07T08:56:27.990Z,65.51
2023-05-07T08:57:27.967Z,63.47
2023-05-07T08:58:27.976Z,61.67
2023-05-07T08:59:27.941Z,60.86
2023-05-07T09:00:27.945Z,62.77
2023-05-07T09:01:27.951Z,64.18
2023-05-07T09:02:27.991Z,62.77
2023-05-07T09:03:27.901Z,63.57
2023-05-07T09:04:27.868Z,63.67
2023-05-07T09:05:27.850Z,63.45
2023-05-07T09:06:27.844Z,63.75
2023-05-07T09:07:27.826Z,64.34
2023-05-07T09:08:27.831Z,61.94
2023-05-07T09:09:27.803Z,61.84
2023-05-07T09:10:27.795Z,61.34
2023-05-07T09:11:27.798Z,62.77
2023-05-07T09:12:27.781Z,61.40
2023-05-07T09:13:27.867Z,62.60
2023-05-07T09:14:27.740Z,61.50
2023-05-07T09:15:27.733Z,62.80
2023-05-07T09:16:27.780Z,63.31
2023-05-07T09:17:27.763Z,63.98
2023-05-07T09:18:27.692Z,63.07
2023-05-07T09:19:27.673Z,64.07
2023-05-07T09:20:27.664Z,64.34
2023-05-07T09:21:27.652Z,62.94
2023-05-07T09:22:27.635Z,61.74
2023-05-07T09:23:27.628Z,61.87
2023-05-07T09:24:27.608Z,61.07
2023-05-07T09:25:27.595Z,59.26
2023-05-07T09:26:27.588Z,60.27
2023-05-07T09:27:27.689Z,61.57
2023-05-07T09:28:27.568Z,62.50
2023-05-07T09:29:27.568Z,62.87
2023-05-07T09:30:27.533Z,63.87
2023-05-07T09:31:27.585Z,64.88
2023-05-07T09:32:27.552Z,64.65
2023-05-07T09:33:27.517Z,64.68
2023-05-07T09:34:27.486Z,61.87
2023-05-07T09:35:27.476Z,63.17
2023-05-07T09:36:27.472Z,63.28
2023-05-07T09:37:27.457Z,62.17
2023-05-07T09:38:27.426Z,61.17
2023-05-07T09:39:27.424Z,61.36
2023-05-07T09:40:27.410Z,61.07
2023-05-07T09:41:27.389Z,61.36
2023-05-07T09:42:27.384Z,64.98
2023-05-07T09:43:27.385Z,63.28
2023-05-07T09:44:27.357Z,64.18
2023-05-07T09:45:27.380Z,63.28
2023-05-07T09:46:27.330Z,61.87
2023-05-07T09:47:27.395Z,61.77
2023-05-07T09:48:27.314Z,62.00
2023-05-07T09:49:27.335Z,62.10
2023-05-07T09:50:27.281Z,63.07
2023-05-07T09:51:27.264Z,62.70
2023-05-07T09:52:27.253Z,64.31
2023-05-07T09:53:27.231Z,63.00
2023-05-07T09:54:27.236Z,63.60
2023-05-07T09:55:27.212Z,62.57
2023-05-07T09:56:27.187Z,62.17
2023-05-07T09:57:27.190Z,62.47
2023-05-07T09:58:27.178Z,64.78
2023-05-07T09:59:30.049Z,62.57
2023-05-07T10:00:27.153Z,61.50
2023-05-07T10:01:27.207Z,61.60
2023-05-07T10:02:27.180Z,62.63
2023-05-07T10:03:27.150Z,62.80
2023-05-07T10:04:27.089Z,65.41
2023-05-07T10:05:27.096Z,63.37
2023-05-07T10:06:27.073Z,63.57
2023-05-07T10:07:27.077Z,62.50
2023-05-07T10:08:27.051Z,63.31
2023-05-07T10:09:27.025Z,65.31
2023-05-07T10:10:27.027Z,65.81
2023-05-07T10:11:27.019Z,65.21
2023-05-07T10:12:27.004Z,65.68
2023-05-07T10:13:27.061Z,64.68
2023-05-07T10:14:26.973Z,64.37
2023-05-07T10:15:27.165Z,64.78
2023-05-07T10:16:26.941Z,65.18
2023-05-07T10:17:27.037Z,64.07
2023-05-07T10:18:27.052Z,63.78
2023-05-07T10:19:26.911Z,63.28
2023-05-07T10:20:26.890Z,64.58
2023-05-07T10:21:26.897Z,64.28
2023-05-07T10:22:26.864Z,64.48
2023-05-07T10:23:26.867Z,62.37
2023-05-07T10:24:26.848Z,62.87
2023-05-07T10:25:26.839Z,61.87
2023-05-07T10:26:26.824Z,62.90
2023-05-07T10:27:26.804Z,62.00
2023-05-07T10:28:26.802Z,62.93
2023-05-07T10:29:26.791Z,63.00
2023-05-07T10:30:27.504Z,62.23
2023-05-07T10:31:26.926Z,63.20
2023-05-07T10:32:26.775Z,64.21
2023-05-07T10:33:26.744Z,65.28
2023-05-07T10:34:26.721Z,64.98
2023-05-07T10:35:26.716Z,63.98
2023-05-07T10:36:26.700Z,62.94
2023-05-07T10:37:26.687Z,63.04
2023-05-07T10:38:26.671Z,62.04
2023-05-07T10:39:26.674Z,63.14
2023-05-07T10:40:26.651Z,62.54
2023-05-07T10:41:26.636Z,61.21
2023-05-07T10:42:26.625Z,61.71
2023-05-07T10:43:26.622Z,61.94
2023-05-07T10:44:26.617Z,61.91
2023-05-07T10:45:26.589Z,62.11
2023-05-07T10:46:26.627Z,62.11
2023-05-07T10:47:26.697Z,63.42
2023-05-07T10:48:30.259Z,63.21
2023-05-07T10:49:26.543Z,61.61
2023-05-07T10:50:26.649Z,62.21
2023-05-07T10:51:26.507Z,63.75
2023-05-07T10:52:26.506Z,63.64
2023-05-07T10:53:26.480Z,63.45
2023-05-07T10:54:26.484Z,62.84
2023-05-07T10:55:26.804Z,63.54
2023-05-07T10:56:26.452Z,65.35
2023-05-07T10:57:26.438Z,65.75
2023-05-07T10:58:32.137Z,66.55
2023-05-07T10:59:27.449Z,66.05
2023-05-07T11:00:38.865Z,64.81
2023-05-07T11:01:27.688Z,64.84
2023-05-07T11:02:26.416Z,65.35
2023-05-07T11:03:26.391Z,64.65
2023-05-07T11:04:26.395Z,65.45
2023-05-07T11:05:26.411Z,63.95
2023-05-07T11:06:26.345Z,65.45
2023-05-07T11:07:26.335Z,64.84
2023-05-07T11:08:26.298Z,65.55
2023-05-07T11:09:26.288Z,65.12
2023-05-07T11:10:26.285Z,65.82
2023-05-07T11:11:26.253Z,67.12
2023-05-07T11:12:26.239Z,65.72
2023-05-07T11:13:26.335Z,65.22
2023-05-07T11:14:26.225Z,65.31
2023-05-07T11:15:26.205Z,65.22
2023-05-07T11:16:26.240Z,63.31
2023-05-07T11:17:26.238Z,64.12
2023-05-07T11:18:26.175Z,65.22
2023-05-07T11:19:26.189Z,65.95
2023-05-07T11:20:26.149Z,66.15
2023-05-07T11:21:26.125Z,66.25
2023-05-07T11:22:26.128Z,66.05
2023-05-07T11:23:26.098Z,68.05
2023-05-07T11:24:26.095Z,66.15
2023-05-07T11:25:26.073Z,65.78
2023-05-07T11:26:26.061Z,66.48
2023-05-07T11:27:26.055Z,65.98
2023-05-07T11:28:26.049Z,65.28
2023-05-07T11:29:26.030Z,65.38
2023-05-07T11:30:26.020Z,67.29
2023-05-07T11:31:26.051Z,65.78
2023-05-07T11:32:26.023Z,66.28
2023-05-07T11:33:25.987Z,66.38
2023-05-07T11:34:25.962Z,65.28
2023-05-07T11:35:25.986Z,66.99
2023-05-07T11:36:25.931Z,66.28
2023-05-07T11:37:25.967Z,65.08
2023-05-07T11:38:25.907Z,66.58
2023-05-07T11:39:25.908Z,65.85
2023-05-07T11:40:25.882Z,66.25
2023-05-07T11:41:25.877Z,65.75
2023-05-07T11:42:25.862Z,65.72
2023-05-07T11:43:25.854Z,64.72
2023-05-07T11:44:25.840Z,64.48
2023-05-07T11:45:25.814Z,62.98
2023-05-07T11:46:25.926Z,63.42
2023-05-07T11:47:25.901Z,63.71
2023-05-07T11:48:25.786Z,63.61
2023-05-07T11:49:25.775Z,62.84
2023-05-07T11:50:25.969Z,63.61
2023-05-07T11:51:25.779Z,64.22
2023-05-07T11:52:25.750Z,65.62
2023-05-07T11:53:25.711Z,67.29
2023-05-07T11:54:25.710Z,65.89
2023-05-07T11:55:25.909Z,66.19
2023-05-07T11:56:25.694Z,65.89
2023-05-07T11:57:25.671Z,66.96
2023-05-07T11:58:25.668Z,64.39
2023-05-07T11:59:25.646Z,63.48
2023-05-07T12:00:25.639Z,63.18
2023-05-07T12:01:25.619Z,63.98
2023-05-07T12:02:25.685Z,63.81
2023-05-07T12:03:25.626Z,63.81
2023-05-07T12:04:25.726Z,63.95
2023-05-07T12:05:25.560Z,65.08
2023-05-07T12:06:25.546Z,65.91
2023-05-07T12:07:25.575Z,66.68
2023-05-07T12:08:25.527Z,65.31
2023-05-07T12:09:25.516Z,66.11
2023-05-07T12:10:25.504Z,65.81
2023-05-07T12:11:25.493Z,66.35
2023-05-07T12:12:25.473Z,66.55
2023-05-07T12:13:25.497Z,65.34
2023-05-07T12:14:25.454Z,66.24
2023-05-07T12:15:25.439Z,66.88
2023-05-07T12:16:25.468Z,67.78
2023-05-07T12:17:25.451Z,68.49
2023-05-07T12:18:25.409Z,69.19
2023-05-07T12:19:25.395Z,69.19
2023-05-07T12:20:25.365Z,68.68
2023-05-07T12:21:25.380Z,69.69
2023-05-07T12:22:25.340Z,68.88
2023-05-07T12:23:25.427Z,70.50
2023-05-07T12:24:25.329Z,69.79
2023-05-07T12:25:25.304Z,69.69
2023-05-07T12:26:25.303Z,69.79
2023-05-07T12:27:25.280Z,70.09
2023-05-07T12:28:25.257Z,71.87
2023-05-07T12:29:25.268Z,72.00
2023-05-07T12:30:25.244Z,73.14
2023-05-07T12:31:25.258Z,75.33
2023-05-07T12:32:25.276Z,76.87
2023-05-07T12:33:25.203Z,77.38
2023-05-07T12:34:25.216Z,79.53
2023-05-07T12:35:25.188Z,79.97
2023-05-07T12:36:25.184Z,80.98
2023-05-07T12:37:25.165Z,81.52
2023-05-07T12:38:25.142Z,81.82
2023-05-07T12:39:25.302Z,81.76
2023-05-07T12:40:25.122Z,83.38
2023-05-07T12:41:25.094Z,85.34
2023-05-07T12:42:25.092Z,86.95
2023-05-07T12:43:25.074Z,86.69
2023-05-07T12:44:25.070Z,86.22
2023-05-07T12:45:25.058Z,86.87
2023-05-07T12:46:25.063Z,88.29
2023-05-07T12:47:25.061Z,88.59
2023-05-07T12:48:25.037Z,90.11
2023-05-07T12:49:25.497Z,91.27
2023-05-07T12:50:24.995Z,90.96
2023-05-07T12:51:24.975Z,91.61
2023-05-07T12:52:24.962Z,91.20